createdAt,value
2018-04-06T00:01:36.381Z,6.20
2018-04-06T00:04:02.918Z,6.20
2018-04-06T00:06:29.474Z,6.20
2018-04-06T00:08:56.054Z,6.20
2018-04-06T00:11:22.956Z,6.20
2018-04-06T00:13:49.518Z,6.20
2018-04-06T00:16:16.073Z,6.20
2018-04-06T00:18:42.593Z,6.10
2018-04-06T00:21:09.159Z,6.00
2018-04-06T00:23:35.714Z,6.00
2018-04-06T00:26:02.242Z,6.00
2018-04-06T00:28:28.845Z,6.00
2018-04-06T00:30:55.802Z,6.20
2018-04-06T00:33:22.702Z,6.20
2018-04-06T00:35:49.310Z,6.20
2018-04-06T00:38:16.269Z,6.20
2018-04-06T00:40:43.165Z,6.10
2018-04-06T00:43:09.727Z,6.10
2018-04-06T00:45:36.285Z,6.10
2018-04-06T00:48:02.833Z,6.10
2018-04-06T00:50:29.398Z,6.10
2018-04-06T00:52:56.342Z,5.90
2018-04-06T00:55:22.870Z,6.00
2018-04-06T00:57:49.432Z,5.90
2018-04-06T01:00:16.029Z,5.90
2018-04-06T01:02:42.558Z,5.90
2018-04-06T01:05:09.485Z,5.90
2018-04-06T01:07:36.048Z,5.90
2018-04-06T01:10:03.002Z,5.60
2018-04-06T01:12:29.961Z,5.70
2018-04-06T01:14:56.898Z,5.70
2018-04-06T01:17:23.438Z,5.70
2018-04-06T01:19:50.014Z,5.70
2018-04-06T01:22:16.945Z,5.40
2018-04-06T01:24:43.482Z,5.40
2018-04-06T01:27:10.054Z,5.40
2018-04-06T01:29:36.617Z,5.30
2018-04-06T01:32:03.513Z,5.30
2018-04-06T01:34:30.075Z,5.30
2018-04-06T01:36:56.637Z,5.20
2018-04-06T01:39:23.194Z,5.20
2018-04-06T01:41:49.762Z,5.10
2018-04-06T01:44:16.690Z,5.00
2018-04-06T01:46:43.218Z,5.00
2018-04-06T01:49:09.773Z,5.00
2018-04-06T01:51:36.358Z,5.00
2018-04-06T01:54:03.258Z,5.00
2018-04-06T01:56:29.817Z,5.00
2018-04-06T01:58:56.373Z,4.90
2018-04-06T02:01:22.912Z,4.70
2018-04-06T02:03:49.473Z,4.70
2018-04-06T02:06:16.034Z,4.70
2018-04-06T02:08:42.559Z,4.70
2018-04-06T02:11:09.177Z,4.60
2018-04-06T02:13:35.738Z,4.50
2018-04-06T02:16:02.267Z,4.40
2018-04-06T02:18:28.833Z,4.40
2018-04-06T02:20:55.394Z,4.50
2018-04-06T02:23:21.975Z,4.50
2018-04-06T02:25:48.909Z,4.20
2018-04-06T02:28:15.462Z,4.20
2018-04-06T02:30:42.006Z,4.10
2018-04-06T02:33:08.571Z,4.00
2018-04-06T02:35:35.526Z,4.20
2018-04-06T02:38:02.463Z,4.10
2018-04-06T02:40:29.047Z,4.20
2018-04-06T02:42:55.618Z,4.10
2018-04-06T02:45:22.180Z,4.10
2018-04-06T02:47:48.769Z,4.20
2018-04-06T02:50:15.341Z,4.20
2018-04-06T02:52:41.877Z,4.10
2018-04-06T02:55:08.817Z,3.90
2018-04-06T02:57:35.382Z,3.90
2018-04-06T03:00:02.370Z,3.80
2018-04-06T03:02:28.939Z,3.80
2018-04-06T03:04:55.498Z,3.80
2018-04-06T03:07:22.033Z,3.80
2018-04-06T03:09:48.654Z,3.70
2018-04-06T03:12:15.218Z,3.70
2018-04-06T03:14:41.737Z,3.70
2018-04-06T03:17:08.297Z,3.70
2018-04-06T03:19:34.873Z,3.70
2018-04-06T03:22:01.414Z,3.70
2018-04-06T03:24:28.010Z,3.70
2018-04-06T03:26:55.225Z,3.50
2018-04-06T03:29:21.762Z,3.50
2018-04-06T03:31:48.327Z,3.30
2018-04-06T03:34:14.909Z,3.40
2018-04-06T03:36:41.813Z,3.10
2018-04-06T03:39:08.410Z,3.10
2018-04-06T03:41:35.350Z,2.90
2018-04-06T03:44:01.891Z,2.90
2018-04-06T03:46:28.453Z,2.70
2018-04-06T03:48:55.019Z,2.70
2018-04-06T03:51:21.946Z,2.60
2018-04-06T03:53:48.510Z,2.60
2018-04-06T03:56:15.442Z,2.80
2018-04-06T03:58:41.980Z,2.90
2018-04-06T04:01:08.585Z,2.90
2018-04-06T04:03:35.137Z,2.90
2018-04-06T04:06:01.663Z,2.90
2018-04-06T04:08:28.590Z,3.00
2018-04-06T04:10:55.166Z,3.00
2018-04-06T04:13:22.065Z,2.90
2018-04-06T04:15:48.630Z,2.90
2018-04-06T04:18:15.189Z,3.00
2018-04-06T04:20:41.718Z,3.00
2018-04-06T04:23:08.285Z,3.00
2018-04-06T04:25:34.854Z,2.90
2018-04-06T04:28:01.763Z,2.50
2018-04-06T04:30:28.345Z,2.50
2018-04-06T04:32:54.914Z,2.40
2018-04-06T04:35:21.813Z,2.30
2018-04-06T04:37:48.437Z,2.30
2018-04-06T04:40:15.066Z,2.40
2018-04-06T04:42:41.970Z,2.50
2018-04-06T04:45:08.542Z,2.50
2018-04-06T04:47:35.114Z,2.50
2018-04-06T04:50:02.028Z,2.40
2018-04-06T04:52:28.601Z,2.40
2018-04-06T04:54:55.164Z,2.30
2018-04-06T04:57:22.085Z,2.10
2018-04-06T04:59:48.654Z,2.10
2018-04-06T05:02:15.214Z,2.20
2018-04-06T05:04:42.122Z,2.20
2018-04-06T05:07:08.714Z,2.20
2018-04-06T05:09:35.692Z,2.30
2018-04-06T05:12:02.223Z,2.30
2018-04-06T05:14:29.158Z,2.50
2018-04-06T05:16:55.731Z,2.50
2018-04-06T05:19:22.262Z,2.50
2018-04-06T05:21:49.201Z,2.60
2018-04-06T05:24:15.769Z,2.60
2018-04-06T05:26:42.665Z,2.80
2018-04-06T05:29:09.236Z,2.80
2018-04-06T05:31:35.810Z,3.00
2018-04-06T05:34:02.349Z,3.20
2018-04-06T05:36:28.922Z,3.40
2018-04-06T05:38:55.645Z,3.50
2018-04-06T05:41:22.177Z,3.70
2018-04-06T05:43:48.738Z,3.90
2018-04-06T05:46:15.306Z,4.00
2018-04-06T05:48:42.214Z,4.40
2018-04-06T05:51:08.791Z,4.40
2018-04-06T05:53:35.353Z,4.40
2018-04-06T05:56:02.297Z,4.70
2018-04-06T05:58:28.865Z,4.70
2018-04-06T06:00:55.434Z,4.90
2018-04-06T06:03:21.963Z,5.00
2018-04-06T06:05:48.938Z,5.20
2018-04-06T06:08:15.502Z,5.20
2018-04-06T06:10:42.034Z,5.50
2018-04-06T06:13:08.597Z,5.40
2018-04-06T06:15:35.186Z,5.30
2018-04-06T06:18:01.781Z,5.40
2018-04-06T06:20:28.392Z,5.60
2018-04-06T06:22:55.345Z,6.10
2018-04-06T06:25:21.866Z,6.20
2018-04-06T06:27:48.437Z,6.40
2018-04-06T06:30:15.005Z,6.40
2018-04-06T06:32:41.905Z,6.60
2018-04-06T06:35:08.470Z,6.60
2018-04-06T06:37:35.038Z,6.70
2018-04-06T06:40:01.609Z,6.80
2018-04-06T06:42:28.545Z,7.20
2018-04-06T06:44:55.520Z,7.40
2018-04-06T06:47:22.054Z,7.40
2018-04-06T06:49:48.981Z,7.90
2018-04-06T06:52:15.556Z,7.80
2018-04-06T06:54:42.454Z,7.30
2018-04-06T06:57:09.021Z,7.30
2018-04-06T06:59:35.581Z,7.30
2018-04-06T07:02:02.146Z,7.10
2018-04-06T07:04:29.081Z,7.50
2018-04-06T07:06:55.638Z,7.50
2018-04-06T07:09:22.196Z,7.70
2018-04-06T07:11:49.134Z,7.90
2018-04-06T07:14:15.716Z,7.90
2018-04-06T07:16:42.610Z,8.10
2018-04-06T07:19:09.179Z,8.10
2018-04-06T07:21:35.782Z,8.10
2018-04-06T07:24:02.329Z,8.20
2018-04-06T07:26:28.889Z,8.30
2018-04-06T07:28:55.454Z,8.40
2018-04-06T07:31:21.981Z,8.50
2018-04-06T07:33:48.590Z,8.70
2018-04-06T07:36:15.570Z,8.70
2018-04-06T07:38:42.142Z,8.70
2018-04-06T07:41:08.702Z,8.70
2018-04-06T07:43:35.266Z,8.80
2018-04-06T07:46:01.805Z,8.90
2018-04-06T07:48:28.377Z,9.20
2018-04-06T07:50:54.941Z,9.20
2018-04-06T07:53:21.845Z,9.30
2018-04-06T07:55:48.409Z,9.30
2018-04-06T07:58:14.978Z,9.50
2018-04-06T08:00:41.901Z,9.90
2018-04-06T08:03:08.476Z,9.90
2018-04-06T08:05:35.050Z,10.10
2018-04-06T08:08:01.681Z,10.20
2018-04-06T08:10:28.649Z,10.30
2018-04-06T08:12:55.221Z,10.30
2018-04-06T08:15:21.749Z,10.40
2018-04-06T08:17:48.494Z,10.60
2018-04-06T08:20:15.111Z,10.70
2018-04-06T08:22:41.646Z,10.50
2018-04-06T08:25:08.221Z,10.40
2018-04-06T08:27:35.162Z,10.60
2018-04-06T08:30:01.703Z,10.60
2018-04-06T08:32:28.278Z,10.30
2018-04-06T08:34:55.274Z,10.60
2018-04-06T08:37:21.826Z,10.60
2018-04-06T08:39:48.438Z,10.50
2018-04-06T08:42:15.383Z,10.70
2018-04-06T08:44:42.289Z,10.60
2018-04-06T08:47:08.858Z,10.60
2018-04-06T08:49:35.425Z,10.40
2018-04-06T08:52:01.970Z,10.40
2018-04-06T08:54:35.516Z,10.20
2018-04-06T08:57:02.082Z,10.20
2018-04-06T08:59:28.635Z,10.30
2018-04-06T09:01:55.206Z,10.40
2018-04-06T09:04:21.778Z,10.70
2018-04-06T09:06:48.690Z,11.00
2018-04-06T09:09:15.250Z,11.00
2018-04-06T09:11:41.824Z,11.10
2018-04-06T09:14:08.365Z,11.20
2018-04-06T09:16:34.991Z,11.10
2018-04-06T09:19:01.627Z,11.10
2018-04-06T09:21:35.119Z,11.30
2018-04-06T09:24:01.686Z,11.50
2018-04-06T09:26:28.249Z,11.50
2018-04-06T09:28:54.827Z,11.30
2018-04-06T09:31:21.891Z,11.40
2018-04-06T09:33:48.817Z,11.50
2018-04-06T09:36:15.403Z,11.50
2018-04-06T09:38:42.052Z,11.40
2018-04-06T09:41:08.967Z,11.60
2018-04-06T09:43:35.553Z,11.60
2018-04-06T09:46:02.509Z,12.00
2018-04-06T09:48:29.426Z,11.90
2018-04-06T09:50:55.997Z,11.90
2018-04-06T09:53:22.640Z,11.90
2018-04-06T09:55:49.582Z,12.00
2018-04-06T09:58:16.170Z,12.00
2018-04-06T10:00:42.866Z,12.00
2018-04-06T10:03:09.438Z,11.50
2018-04-06T10:05:36.046Z,11.70
2018-04-06T10:08:02.626Z,11.90
2018-04-06T10:10:29.173Z,11.90
2018-04-06T10:12:55.761Z,12.10
2018-04-06T10:15:22.403Z,12.00
2018-04-06T10:17:48.982Z,12.00
2018-04-06T10:20:15.559Z,12.10
2018-04-06T10:22:42.158Z,12.20
2018-04-06T10:25:08.710Z,12.40
2018-04-06T10:27:35.282Z,12.50
2018-04-06T10:30:01.855Z,12.50
2018-04-06T10:32:28.402Z,12.60
2018-04-06T10:34:55.088Z,12.50
2018-04-06T10:37:21.669Z,12.70
2018-04-06T10:39:48.963Z,12.70
2018-04-06T10:42:15.558Z,12.90
2018-04-06T10:44:42.610Z,13.00
2018-04-06T10:47:16.422Z,13.10
2018-04-06T10:49:43.367Z,13.10
2018-04-06T10:52:09.910Z,13.10
2018-04-06T10:54:36.530Z,12.90
2018-04-06T10:57:03.101Z,13.00
2018-04-06T10:59:29.673Z,13.20
2018-04-06T11:01:56.618Z,13.50
2018-04-06T11:04:23.558Z,13.40
2018-04-06T11:06:50.145Z,13.40
2018-04-06T11:09:17.066Z,13.50
2018-04-06T11:11:43.635Z,13.50
2018-04-06T11:14:10.546Z,13.70
2018-04-06T11:16:37.126Z,13.60
2018-04-06T11:19:04.074Z,13.70
2018-04-06T11:21:30.742Z,13.70
2018-04-06T11:23:57.677Z,13.50
2018-04-06T11:26:24.245Z,13.50
2018-04-06T11:28:51.202Z,13.60
2018-04-06T11:31:18.149Z,13.70
2018-04-06T11:33:45.094Z,13.80
2018-04-06T11:36:12.027Z,14.10
2018-04-06T11:38:38.651Z,14.10
2018-04-06T11:41:05.285Z,14.00
2018-04-06T11:43:31.826Z,14.10
2018-04-06T11:45:58.770Z,14.10
2018-04-06T11:48:25.741Z,14.10
2018-04-06T11:50:52.349Z,14.10
2018-04-06T11:53:18.929Z,14.00
2018-04-06T11:55:45.858Z,14.10
2018-04-06T11:58:12.402Z,14.10
2018-04-06T12:00:38.974Z,14.40
2018-04-06T12:03:05.930Z,14.70
2018-04-06T12:05:32.834Z,14.80
2018-04-06T12:07:59.399Z,14.80
2018-04-06T12:10:25.978Z,14.90
2018-04-06T12:12:52.913Z,15.00
2018-04-06T12:15:19.503Z,15.00
2018-04-06T12:17:46.070Z,14.90
2018-04-06T12:20:12.610Z,14.90
2018-04-06T12:22:39.194Z,15.00
2018-04-06T12:25:05.781Z,14.90
2018-04-06T12:27:32.702Z,14.60
2018-04-06T12:29:59.278Z,14.60
2018-04-06T12:32:26.226Z,14.40
2018-04-06T12:34:53.138Z,14.40
2018-04-06T12:37:19.757Z,14.30
2018-04-06T12:39:46.421Z,14.30
2018-04-06T12:42:12.962Z,14.30
2018-04-06T12:44:39.533Z,14.50
2018-04-06T12:47:06.097Z,14.60
2018-04-06T12:49:32.629Z,14.50
2018-04-06T12:51:59.201Z,14.40
2018-04-06T12:54:25.770Z,14.30
2018-04-06T12:56:52.682Z,14.20
2018-04-06T12:59:19.261Z,14.20
2018-04-06T13:01:46.218Z,14.20
2018-04-06T13:04:12.762Z,14.20
2018-04-06T13:06:39.338Z,14.20
2018-04-06T13:09:05.910Z,14.10
2018-04-06T13:11:32.444Z,14.20
2018-04-06T13:13:59.071Z,14.40
2018-04-06T13:16:26.016Z,14.70
2018-04-06T13:18:52.916Z,14.90
2018-04-06T13:21:19.498Z,14.90
2018-04-06T13:23:46.065Z,15.00
2018-04-06T13:26:12.613Z,15.10
2018-04-06T13:28:39.585Z,15.00
2018-04-06T13:31:06.543Z,14.80
2018-04-06T13:33:33.451Z,14.60
2018-04-06T13:36:00.050Z,14.50
2018-04-06T13:38:26.989Z,15.00
2018-04-06T13:40:53.926Z,14.60
2018-04-06T13:43:20.499Z,14.60
2018-04-06T13:45:47.432Z,14.60
2018-04-06T13:48:14.025Z,14.60
2018-04-06T13:50:40.602Z,15.00
2018-04-06T13:53:07.174Z,15.20
2018-04-06T13:55:33.713Z,15.30
2018-04-06T13:58:00.278Z,15.10
2018-04-06T14:00:26.857Z,15.20
2018-04-06T14:02:53.399Z,15.00
2018-04-06T14:05:19.989Z,14.90
2018-04-06T14:07:46.549Z,14.90
2018-04-06T14:10:13.088Z,15.10
2018-04-06T14:12:39.654Z,15.20
2018-04-06T14:15:06.263Z,15.30
2018-04-06T14:17:39.677Z,15.20
2018-04-06T14:20:07.478Z,15.20
2018-04-06T14:22:34.014Z,15.10
2018-04-06T14:25:00.622Z,14.90
2018-04-06T14:27:27.213Z,15.00
2018-04-06T14:29:53.750Z,14.90
2018-04-06T14:32:20.310Z,15.00
2018-04-06T14:34:46.886Z,15.20
2018-04-06T14:37:13.431Z,14.90
2018-04-06T14:39:40.379Z,14.70
2018-04-06T14:42:06.979Z,14.70
2018-04-06T14:44:33.541Z,14.80
2018-04-06T14:47:00.119Z,14.70
2018-04-06T14:49:26.686Z,14.90
2018-04-06T14:51:53.589Z,15.10
2018-04-06T14:54:20.150Z,15.10
2018-04-06T14:56:46.710Z,15.20
2018-04-06T14:59:13.241Z,15.10
2018-04-06T15:01:39.834Z,15.00
2018-04-06T15:04:06.776Z,14.50
2018-04-06T15:06:33.311Z,14.50
2018-04-06T15:08:59.901Z,14.50
2018-04-06T15:11:26.482Z,14.40
2018-04-06T15:13:53.025Z,14.50
2018-04-06T15:16:19.594Z,14.40
2018-04-06T15:18:46.157Z,14.40
2018-04-06T15:21:13.703Z,14.40
2018-04-06T15:23:40.262Z,14.20
2018-04-06T15:26:06.829Z,14.00
2018-04-06T15:28:33.362Z,13.90
2018-04-06T15:30:59.992Z,14.00
2018-04-06T15:33:26.569Z,13.80
2018-04-06T15:35:53.106Z,13.90
2018-04-06T15:38:19.669Z,13.80
2018-04-06T15:40:46.637Z,13.90
2018-04-06T15:43:13.555Z,13.80
2018-04-06T15:45:40.121Z,13.80
2018-04-06T15:48:06.790Z,13.70
2018-04-06T15:50:33.725Z,13.60
2018-04-06T15:53:00.322Z,13.70
2018-04-06T15:55:26.881Z,13.60
2018-04-06T15:57:53.405Z,13.70
2018-04-06T16:00:20.023Z,13.60
2018-04-06T16:02:46.634Z,13.50
2018-04-06T16:05:13.175Z,13.40
2018-04-06T16:07:39.809Z,13.40
2018-04-06T16:10:06.378Z,13.40
2018-04-06T16:12:32.927Z,13.30
2018-04-06T16:14:59.538Z,13.20
2018-04-06T16:17:26.105Z,13.10
2018-04-06T16:19:53.949Z,13.00
2018-04-06T16:22:20.909Z,12.80
2018-04-06T16:24:47.886Z,12.60
2018-04-06T16:27:14.474Z,12.60
2018-04-06T16:29:41.093Z,12.60
2018-04-06T16:32:07.664Z,12.60
2018-04-06T16:34:34.199Z,12.50
2018-04-06T16:37:00.773Z,12.50
2018-04-06T16:39:27.343Z,12.40
2018-04-06T16:41:54.310Z,12.20
2018-04-06T16:44:20.878Z,12.20
2018-04-06T16:46:47.450Z,12.20
2018-04-06T16:49:13.990Z,12.10
2018-04-06T16:51:40.573Z,12.10
2018-04-06T16:54:07.154Z,12.00
2018-04-06T16:56:34.059Z,11.90
2018-04-06T16:59:00.621Z,11.90
2018-04-06T17:01:27.202Z,11.80
2018-04-06T17:03:53.738Z,11.80
2018-04-06T17:06:20.681Z,11.60
2018-04-06T17:08:47.641Z,11.40
2018-04-06T17:11:14.553Z,11.40
2018-04-06T17:13:41.141Z,11.40
2018-04-06T17:16:08.086Z,11.20
2018-04-06T17:18:34.626Z,11.20
2018-04-06T17:21:01.202Z,11.20
2018-04-06T17:23:28.161Z,11.10
2018-04-06T17:25:55.074Z,11.10
2018-04-06T17:28:21.663Z,11.10
2018-04-06T17:30:48.610Z,11.00
2018-04-06T17:33:15.528Z,10.90
2018-04-06T17:35:42.110Z,10.90
2018-04-06T17:38:08.675Z,10.90
2018-04-06T17:40:35.245Z,10.80
2018-04-06T17:43:01.886Z,10.80
2018-04-06T17:45:28.507Z,10.70
2018-04-06T17:47:55.442Z,10.60
2018-04-06T17:50:22.030Z,10.60
2018-04-06T17:52:48.651Z,10.50
2018-04-06T17:55:16.135Z,10.50
2018-04-06T17:57:42.746Z,10.50
2018-04-06T18:00:09.387Z,10.40
2018-04-06T18:02:35.934Z,10.30
2018-04-06T18:05:02.598Z,10.20
2018-04-06T18:07:29.249Z,10.20
2018-04-06T18:09:55.805Z,10.10
2018-04-06T18:12:22.401Z,10.10
2018-04-06T18:14:48.998Z,10.00
2018-04-06T18:17:15.550Z,9.90
2018-04-06T18:19:42.141Z,9.80
2018-04-06T18:22:08.722Z,9.80
2018-04-06T18:24:35.287Z,9.70
2018-04-06T18:27:01.888Z,9.70
2018-04-06T18:29:28.480Z,9.60
2018-04-06T18:31:55.136Z,9.60
2018-04-06T18:34:21.738Z,9.50
2018-04-06T18:36:48.345Z,9.50
2018-04-06T18:39:15.286Z,9.50
2018-04-06T18:41:42.179Z,9.50
2018-04-06T18:44:09.259Z,9.40
2018-04-06T18:46:35.874Z,9.30
2018-04-06T18:49:02.922Z,9.20
2018-04-06T18:51:29.954Z,9.20
2018-04-06T18:53:56.503Z,9.20
2018-04-06T18:56:23.223Z,9.10
2018-04-06T18:58:50.125Z,9.10
2018-04-06T19:01:16.673Z,9.00
2018-04-06T19:03:43.477Z,9.00
2018-04-06T19:06:10.062Z,8.90
2018-04-06T19:08:36.749Z,8.90
2018-04-06T19:11:10.573Z,8.70
2018-04-06T19:13:37.166Z,8.70
2018-04-06T19:16:03.731Z,8.70
2018-04-06T19:18:30.490Z,8.60
2018-04-06T19:20:57.266Z,8.50
2018-04-06T19:23:24.183Z,8.50
2018-04-06T19:25:50.758Z,8.50
2018-04-06T19:28:17.709Z,8.40
2018-04-06T19:30:44.245Z,8.40
2018-04-06T19:33:10.817Z,8.30
2018-04-06T19:35:38.658Z,8.20
2018-04-06T19:38:05.754Z,8.20
2018-04-06T19:40:32.882Z,8.20
2018-04-06T19:42:59.461Z,8.20
2018-04-06T19:45:25.994Z,8.20
2018-04-06T19:47:52.637Z,8.10
2018-04-06T19:50:19.261Z,8.00
2018-04-06T19:52:46.554Z,7.90
2018-04-06T19:55:13.126Z,8.00
2018-04-06T19:57:40.073Z,8.00
2018-04-06T20:00:07.017Z,8.00
2018-04-06T20:02:33.603Z,8.00
2018-04-06T20:05:00.174Z,7.90
2018-04-06T20:07:26.848Z,7.90
2018-04-06T20:09:53.510Z,7.90
2018-04-06T20:12:20.181Z,7.90
2018-04-06T20:14:48.102Z,7.90
2018-04-06T20:17:14.721Z,7.90
2018-04-06T20:19:41.365Z,7.80
2018-04-06T20:22:08.279Z,7.70
2018-04-06T20:24:35.687Z,7.70
2018-04-06T20:27:02.286Z,7.60
2018-04-06T20:29:29.057Z,7.50
2018-04-06T20:31:56.392Z,7.50
2018-04-06T20:34:23.260Z,7.50
2018-04-06T20:36:50.065Z,7.50
2018-04-06T20:39:17.201Z,7.40
2018-04-06T20:41:44.102Z,7.40
2018-04-06T20:44:10.894Z,7.30
2018-04-06T20:46:37.730Z,7.40
2018-04-06T20:49:04.564Z,7.40
2018-04-06T20:51:31.352Z,7.30
2018-04-06T20:53:58.219Z,7.40
2018-04-06T20:56:25.041Z,7.40
2018-04-06T20:58:51.858Z,7.40
2018-04-06T21:01:18.688Z,7.30
2018-04-06T21:03:45.524Z,7.30
2018-04-06T21:06:12.308Z,7.30
2018-04-06T21:08:39.570Z,7.20
2018-04-06T21:11:06.788Z,7.20
2018-04-06T21:13:33.587Z,7.30
2018-04-06T21:16:00.702Z,7.20
2018-04-06T21:18:27.571Z,7.20
2018-04-06T21:20:54.378Z,7.20
2018-04-06T21:23:21.207Z,7.20
2018-04-06T21:25:48.143Z,7.10
2018-04-06T21:28:14.687Z,7.20
2018-04-06T21:30:41.253Z,7.20
2018-04-06T21:33:08.182Z,7.10
2018-04-06T21:35:34.782Z,7.10
2018-04-06T21:38:01.401Z,7.00
2018-04-06T21:40:28.350Z,7.00
2018-04-06T21:42:54.926Z,7.00
2018-04-06T21:45:21.550Z,7.00
2018-04-06T21:47:48.172Z,6.90
2018-04-06T21:50:14.749Z,6.90
2018-04-06T21:52:41.322Z,6.90
2018-04-06T21:55:07.946Z,6.90
2018-04-06T21:57:34.901Z,6.90
2018-04-06T22:00:01.469Z,6.90
2018-04-06T22:02:28.458Z,6.90
2018-04-06T22:04:54.997Z,6.90
2018-04-06T22:07:21.625Z,6.90
2018-04-06T22:09:48.605Z,6.90
2018-04-06T22:12:15.150Z,6.90
2018-04-06T22:14:41.729Z,6.90
2018-04-06T22:17:08.293Z,6.90
2018-04-06T22:19:34.830Z,6.90
2018-04-06T22:22:01.393Z,6.80
2018-04-06T22:24:27.962Z,6.70
2018-04-06T22:26:54.864Z,6.70
2018-04-06T22:29:21.425Z,6.70
2018-04-06T22:31:47.990Z,6.70
2018-04-06T22:34:14.519Z,6.60
2018-04-06T22:36:41.074Z,6.60
2018-04-06T22:39:07.642Z,6.60
2018-04-06T22:41:34.573Z,6.60
2018-04-06T22:44:01.150Z,6.60
2018-04-06T22:46:28.087Z,6.60
2018-04-06T22:48:54.620Z,6.60
2018-04-06T22:51:21.186Z,6.50
2018-04-06T22:53:47.755Z,6.40
2018-04-06T22:56:14.654Z,6.40
2018-04-06T22:58:41.210Z,6.40
2018-04-06T23:01:07.805Z,6.40
2018-04-06T23:03:34.710Z,6.20
2018-04-06T23:06:01.282Z,6.30
2018-04-06T23:08:27.853Z,6.30
2018-04-06T23:10:54.749Z,6.20
2018-04-06T23:13:21.327Z,6.20
2018-04-06T23:15:47.918Z,6.20
2018-04-06T23:18:14.454Z,6.20
2018-04-06T23:20:41.389Z,6.20
2018-04-06T23:23:07.947Z,6.20
2018-04-06T23:25:34.561Z,6.10
2018-04-06T23:28:01.126Z,6.00
2018-04-06T23:30:27.690Z,6.10
2018-04-06T23:32:54.590Z,5.90
2018-04-06T23:35:21.242Z,5.90
2018-04-06T23:37:47.809Z,5.90
2018-04-06T23:40:14.334Z,5.90
2018-04-06T23:42:40.926Z,5.90
2018-04-06T23:45:07.485Z,5.90
2018-04-06T23:47:34.388Z,5.90
2018-04-06T23:50:00.952Z,5.80
2018-04-06T23:52:27.510Z,5.90
2018-04-06T23:54:54.038Z,5.90
2018-04-06T23:57:20.602Z,5.90
2018-04-06T23:59:47.161Z,5.90
